createdAt,value
2023-02-27T00:00:37.755Z,102280.19
2023-02-27T00:03:05.162Z,102279.50
2023-02-27T00:05:32.538Z,102275.22
2023-02-27T00:07:59.709Z,102279.41
2023-02-27T00:10:27.000Z,102277.69
2023-02-27T00:12:54.174Z,102278.53
2023-02-27T00:15:21.617Z,102279.53
2023-02-27T00:17:48.792Z,102282.25
2023-02-27T00:20:18.097Z,102275.47
2023-02-27T00:22:46.454Z,102268.31
2023-02-27T00:25:15.136Z,102271.94
2023-02-27T00:27:42.594Z,102268.97
2023-02-27T00:30:13.655Z,102280.03
2023-02-27T00:32:41.716Z,102278.44
2023-02-27T00:35:11.463Z,102272.69
2023-02-27T00:37:40.125Z,102276.00
2023-02-27T00:40:08.670Z,102278.41
2023-02-27T00:42:35.979Z,102280.16
2023-02-27T00:45:05.444Z,102279.88
2023-02-27T00:47:34.539Z,102278.13
2023-02-27T00:50:02.058Z,102285.97
2023-02-27T00:52:29.421Z,102286.81
2023-02-27T00:54:56.584Z,102282.91
2023-02-27T00:57:23.729Z,102284.94
2023-02-27T00:59:50.950Z,102273.34
2023-02-27T01:02:18.233Z,102277.31
2023-02-27T01:04:45.403Z,102282.09
2023-02-27T01:07:13.123Z,102276.81
2023-02-27T01:09:40.239Z,102273.38
2023-02-27T01:12:07.625Z,102269.25
2023-02-27T01:14:34.741Z,102273.19
2023-02-27T01:17:02.185Z,102270.06
2023-02-27T01:19:29.502Z,102267.31
2023-02-27T01:21:56.681Z,102267.00
2023-02-27T01:24:23.899Z,102268.97
2023-02-27T01:26:52.681Z,102263.91
2023-02-27T01:29:20.040Z,102269.63
2023-02-27T01:31:48.980Z,102264.59
2023-02-27T01:34:16.839Z,102263.19
2023-02-27T01:36:44.080Z,102266.47
2023-02-27T01:39:11.240Z,102266.13
2023-02-27T01:41:38.417Z,102267.31
2023-02-27T01:44:12.167Z,102265.53
2023-02-27T01:46:41.047Z,102262.56
2023-02-27T01:49:20.879Z,102269.13
2023-02-27T01:52:01.829Z,102270.53
2023-02-27T01:54:34.969Z,102260.44
2023-02-27T01:57:06.517Z,102265.97
2023-02-27T01:59:36.708Z,102264.81
2023-02-27T02:02:14.586Z,102266.69
2023-02-27T02:04:42.566Z,102280.81
2023-02-27T02:07:16.894Z,102271.03
2023-02-27T02:09:49.941Z,102272.69
2023-02-27T02:12:21.425Z,102267.44
2023-02-27T02:14:48.560Z,102275.34
2023-02-27T02:17:40.627Z,102278.00
2023-02-27T02:20:29.159Z,102261.53
2023-02-27T02:23:40.439Z,102280.97
2023-02-27T02:26:34.050Z,102265.78
2023-02-27T02:29:41.773Z,102276.19
2023-02-27T02:32:27.934Z,102275.47
2023-02-27T02:35:43.689Z,102274.41
2023-02-27T02:38:56.035Z,102273.22
2023-02-27T02:41:46.289Z,102275.34
2023-02-27T02:44:42.393Z,102270.03
2023-02-27T02:47:36.696Z,102264.47
2023-02-27T02:50:09.535Z,102270.41
2023-02-27T02:53:09.639Z,102270.13
2023-02-27T02:55:52.438Z,102261.72
2023-02-27T02:58:33.914Z,102269.19
2023-02-27T03:01:17.383Z,102280.03
2023-02-27T03:04:02.326Z,102268.91
2023-02-27T03:06:35.533Z,102270.13
2023-02-27T03:09:31.475Z,102279.88
2023-02-27T03:12:02.574Z,102275.59
2023-02-27T03:14:47.030Z,102288.09
2023-02-27T03:17:36.013Z,102288.41
2023-02-27T03:20:09.067Z,102302.03
2023-02-27T03:22:42.564Z,102288.88
2023-02-27T03:25:14.994Z,102291.88
2023-02-27T03:28:00.075Z,102281.13
2023-02-27T03:30:41.334Z,102285.81
2023-02-27T03:33:18.975Z,102294.78
2023-02-27T03:36:14.762Z,102302.63
2023-02-27T03:39:00.732Z,102297.41
2023-02-27T03:41:34.520Z,102301.41
2023-02-27T03:44:28.398Z,102299.69
2023-02-27T03:46:55.648Z,102306.38
2023-02-27T03:49:23.042Z,102306.88
2023-02-27T03:51:50.427Z,102303.56
2023-02-27T03:54:27.886Z,102310.66
2023-02-27T03:57:05.896Z,102307.94
2023-02-27T03:59:36.109Z,102295.25
2023-02-27T04:02:04.462Z,102302.47
2023-02-27T04:04:33.854Z,102304.78
2023-02-27T04:07:23.031Z,102297.78
2023-02-27T04:10:25.564Z,102302.66
2023-02-27T04:13:20.933Z,102306.00
2023-02-27T04:16:04.541Z,102319.16
2023-02-27T04:19:10.214Z,102320.03
2023-02-27T04:22:24.932Z,102314.81
2023-02-27T04:25:29.607Z,102319.91
2023-02-27T04:28:26.766Z,102328.75
2023-02-27T04:31:11.478Z,102333.44
2023-02-27T04:34:10.342Z,102326.59
2023-02-27T04:37:01.749Z,102329.06
2023-02-27T04:39:46.208Z,102333.56
2023-02-27T04:42:21.523Z,102332.91
2023-02-27T04:44:54.315Z,102333.63
2023-02-27T04:47:26.730Z,102328.00
2023-02-27T04:50:07.206Z,102338.91
2023-02-27T04:52:41.639Z,102339.63
2023-02-27T04:55:20.803Z,102341.78
2023-02-27T04:58:03.009Z,102339.94
2023-02-27T05:00:34.878Z,102338.19
2023-02-27T05:03:28.704Z,102337.50
2023-02-27T05:06:00.716Z,102342.47
2023-02-27T05:08:57.594Z,102335.91
2023-02-27T05:11:31.558Z,102337.03
2023-02-27T05:15:03.185Z,102340.19
2023-02-27T05:17:39.631Z,102338.41
2023-02-27T05:20:08.072Z,102339.50
2023-02-27T05:22:46.419Z,102340.94
2023-02-27T05:25:37.170Z,102349.00
2023-02-27T05:28:13.693Z,102351.88
2023-02-27T05:31:04.605Z,102344.41
2023-02-27T05:34:16.775Z,102346.72
2023-02-27T05:36:57.522Z,102348.72
2023-02-27T05:39:30.089Z,102359.63
2023-02-27T05:42:26.788Z,102361.06
2023-02-27T05:45:03.505Z,102361.41
2023-02-27T05:47:37.190Z,102364.41
2023-02-27T05:50:14.056Z,102365.81
2023-02-27T05:52:43.521Z,102371.78
2023-02-27T05:55:21.264Z,102368.28
2023-02-27T05:58:00.931Z,102372.84
2023-02-27T06:00:40.153Z,102373.91
2023-02-27T06:03:07.494Z,102373.75
2023-02-27T06:05:38.421Z,102384.06
2023-02-27T06:08:05.623Z,102390.75
2023-02-27T06:10:32.966Z,102380.03
2023-02-27T06:13:00.151Z,102387.59
2023-02-27T06:15:28.378Z,102388.13
2023-02-27T06:17:56.359Z,102403.22
2023-02-27T06:20:23.692Z,102392.16
2023-02-27T06:22:50.838Z,102388.47
2023-02-27T06:25:18.055Z,102403.91
2023-02-27T06:27:45.268Z,102411.09
2023-02-27T06:30:12.967Z,102408.13
2023-02-27T06:32:40.232Z,102410.91
2023-02-27T06:35:07.984Z,102416.75
2023-02-27T06:37:35.244Z,102421.84
2023-02-27T06:40:02.368Z,102428.31
2023-02-27T06:42:29.499Z,102429.91
2023-02-27T06:44:56.694Z,102420.03
2023-02-27T06:47:24.015Z,102428.84
2023-02-27T06:49:51.116Z,102426.38
2023-02-27T06:52:18.238Z,102422.91
2023-02-27T06:54:45.358Z,102422.53
2023-02-27T06:57:12.483Z,102427.72
2023-02-27T06:59:39.613Z,102420.28
2023-02-27T07:02:07.159Z,102413.09
2023-02-27T07:04:34.468Z,102420.44
2023-02-27T07:07:35.608Z,102422.28
2023-02-27T07:09:48.935Z,102429.03
2023-02-27T07:12:16.504Z,102427.97
2023-02-27T07:14:43.621Z,102439.00
2023-02-27T07:17:10.954Z,102438.19
2023-02-27T07:19:38.137Z,102450.28
2023-02-27T07:22:05.341Z,102442.88
2023-02-27T07:24:32.480Z,102436.44
2023-02-27T07:26:59.624Z,102445.84
2023-02-27T07:29:26.902Z,102452.31
2023-02-27T07:31:54.142Z,102455.63
2023-02-27T07:34:21.324Z,102458.47
2023-02-27T07:36:48.520Z,102455.19
2023-02-27T07:39:15.803Z,102452.53
2023-02-27T07:41:42.947Z,102458.00
2023-02-27T07:44:11.234Z,102451.91
2023-02-27T07:46:38.376Z,102451.31
2023-02-27T07:49:05.514Z,102449.94
2023-02-27T07:51:32.631Z,102448.41
2023-02-27T07:53:59.855Z,102461.81
2023-02-27T07:56:27.616Z,102473.56
2023-02-27T07:58:55.062Z,102476.97
2023-02-27T08:01:22.240Z,102465.78
2023-02-27T08:03:49.373Z,102472.50
2023-02-27T08:06:16.744Z,102466.78
2023-02-27T08:08:43.991Z,102448.09
2023-02-27T08:11:11.567Z,102457.38
2023-02-27T08:16:26.674Z,102442.28
2023-02-27T08:18:54.272Z,102450.44
2023-02-27T08:21:21.870Z,102457.78
2023-02-27T08:23:49.171Z,102453.03
2023-02-27T08:26:16.373Z,102442.44
2023-02-27T08:28:43.544Z,102430.69
2023-02-27T08:31:10.709Z,102443.19
2023-02-27T08:33:37.980Z,102437.16
2023-02-27T08:36:05.975Z,102454.78
2023-02-27T08:38:33.181Z,102444.19
2023-02-27T08:41:00.284Z,102467.19
2023-02-27T08:43:27.422Z,102477.75
2023-02-27T08:45:54.697Z,102463.22
2023-02-27T08:48:24.255Z,102441.44
2023-02-27T08:50:52.155Z,102442.59
2023-02-27T08:53:19.317Z,102447.44
2023-02-27T08:55:51.138Z,102439.00
2023-02-27T08:58:18.716Z,102439.22
2023-02-27T09:00:46.660Z,102434.69
2023-02-27T09:03:13.872Z,102434.22
2023-02-27T09:05:41.930Z,102441.38
2023-02-27T09:08:09.518Z,102447.25
2023-02-27T09:10:36.827Z,102447.78
2023-02-27T09:13:03.997Z,102442.41
2023-02-27T09:15:32.520Z,102436.66
2023-02-27T09:18:03.040Z,102430.19
2023-02-27T09:20:31.636Z,102436.69
2023-02-27T09:22:59.652Z,102438.00
2023-02-27T09:25:28.188Z,102430.28
2023-02-27T09:27:55.996Z,102430.31
2023-02-27T09:30:23.700Z,102434.59
2023-02-27T09:32:51.612Z,102429.91
2023-02-27T09:35:20.426Z,102420.13
2023-02-27T09:37:49.670Z,102435.88
2023-02-27T09:40:29.661Z,102424.34
2023-02-27T09:43:02.901Z,102434.09
2023-02-27T09:45:36.521Z,102434.69
2023-02-27T09:48:26.573Z,102435.75
2023-02-27T09:50:53.855Z,102431.25
2023-02-27T09:53:31.340Z,102426.66
2023-02-27T09:56:19.952Z,102430.34
2023-02-27T09:59:13.466Z,102436.44
2023-02-27T10:01:57.507Z,102445.34
2023-02-27T10:04:47.150Z,102433.75
2023-02-27T10:07:25.813Z,102438.91
2023-02-27T10:10:35.877Z,102448.31
2023-02-27T10:13:53.185Z,102433.25
2023-02-27T10:16:23.421Z,102440.13
2023-02-27T10:19:05.407Z,102440.03
2023-02-27T10:21:41.096Z,102440.22
2023-02-27T10:24:31.219Z,102456.78
2023-02-27T10:27:05.614Z,102456.44
2023-02-27T10:29:39.863Z,102454.06
2023-02-27T10:32:28.405Z,102466.91
2023-02-27T10:35:14.196Z,102477.91
2023-02-27T10:37:50.569Z,102469.16
2023-02-27T10:40:20.627Z,102473.81
2023-02-27T10:42:49.225Z,102467.78
2023-02-27T10:45:16.656Z,102467.94
2023-02-27T10:47:44.365Z,102460.78
2023-02-27T10:50:32.620Z,102452.59
2023-02-27T10:53:03.752Z,102464.44
2023-02-27T10:55:48.196Z,102459.81
2023-02-27T10:58:19.967Z,102453.22
2023-02-27T11:00:57.864Z,102443.47
2023-02-27T11:03:35.594Z,102464.00
2023-02-27T11:06:13.685Z,102464.69
2023-02-27T11:08:40.863Z,102466.97
2023-02-27T11:11:11.444Z,102461.81
2023-02-27T11:13:44.750Z,102455.66
2023-02-27T11:16:23.498Z,102467.66
2023-02-27T11:18:54.215Z,102461.50
2023-02-27T11:21:30.679Z,102444.19
2023-02-27T11:24:08.663Z,102438.25
2023-02-27T11:26:39.989Z,102438.25
2023-02-27T11:29:15.056Z,102422.13
2023-02-27T11:31:52.357Z,102435.50
2023-02-27T11:34:28.350Z,102427.00
2023-02-27T11:37:00.730Z,102436.97
2023-02-27T11:39:40.432Z,102428.72
2023-02-27T11:42:17.609Z,102428.91
2023-02-27T11:44:58.418Z,102427.47
2023-02-27T11:47:40.629Z,102439.88
2023-02-27T11:51:01.425Z,102440.19
2023-02-27T11:53:52.433Z,102437.91
2023-02-27T11:56:43.502Z,102441.66
2023-02-27T11:59:10.650Z,102426.25
2023-02-27T12:01:54.094Z,102424.16
2023-02-27T12:04:43.133Z,102429.22
2023-02-27T12:07:28.530Z,102436.69
2023-02-27T12:10:22.343Z,102443.69
2023-02-27T12:13:03.974Z,102449.00
2023-02-27T12:15:40.052Z,102441.47
2023-02-27T12:18:28.260Z,102446.50
2023-02-27T12:21:01.128Z,102440.78
2023-02-27T12:23:43.533Z,102442.13
2023-02-27T12:26:29.736Z,102444.56
2023-02-27T12:29:09.290Z,102442.88
2023-02-27T12:31:47.133Z,102450.00
2023-02-27T12:34:29.298Z,102447.53
2023-02-27T12:37:12.081Z,102446.72
2023-02-27T12:39:43.103Z,102457.69
2023-02-27T12:42:13.826Z,102446.97
2023-02-27T12:45:08.454Z,102442.28
2023-02-27T12:47:55.300Z,102453.56
2023-02-27T12:50:25.915Z,102454.47
2023-02-27T12:53:40.238Z,102454.38
2023-02-27T12:56:18.450Z,102460.41
2023-02-27T12:59:04.477Z,102457.91
2023-02-27T13:02:16.680Z,102457.25
2023-02-27T13:04:50.175Z,102453.25
2023-02-27T13:07:32.274Z,102455.91
2023-02-27T13:10:15.717Z,102448.44
2023-02-27T13:12:57.201Z,102442.69
2023-02-27T13:15:54.226Z,102441.97
2023-02-27T13:18:40.150Z,102443.44
2023-02-27T13:21:17.242Z,102427.72
2023-02-27T13:24:23.965Z,102426.53
2023-02-27T13:27:02.137Z,102426.75
2023-02-27T13:29:41.292Z,102432.78
2023-02-27T13:32:55.413Z,102431.66
2023-02-27T13:35:38.777Z,102435.28
2023-02-27T13:38:50.459Z,102433.94
2023-02-27T13:41:20.597Z,102422.44
2023-02-27T13:43:52.621Z,102428.78
2023-02-27T13:46:26.140Z,102434.38
2023-02-27T13:49:29.264Z,102433.22
2023-02-27T13:52:04.778Z,102431.53
2023-02-27T13:54:40.624Z,102436.72
2023-02-27T13:57:24.837Z,102435.22
2023-02-27T13:59:57.561Z,102429.91
2023-02-27T14:02:58.381Z,102430.31
2023-02-27T14:05:33.408Z,102435.84
2023-02-27T14:08:26.631Z,102429.53
2023-02-27T14:11:24.944Z,102441.06
2023-02-27T14:13:56.707Z,102421.44
2023-02-27T14:16:41.879Z,102429.03
2023-02-27T14:19:17.826Z,102428.56
2023-02-27T14:21:50.949Z,102433.28
2023-02-27T14:24:22.361Z,102427.69
2023-02-27T14:26:52.236Z,102428.50
2023-02-27T14:29:33.222Z,102416.41
2023-02-27T14:32:07.857Z,102420.88
2023-02-27T14:34:38.076Z,102430.78
2023-02-27T14:37:13.712Z,102433.41
2023-02-27T14:39:41.093Z,102424.91
2023-02-27T14:42:36.242Z,102428.16
2023-02-27T14:45:05.117Z,102441.94
2023-02-27T14:47:36.844Z,102434.63
2023-02-27T14:50:20.366Z,102442.38
2023-02-27T14:52:47.560Z,102439.13
2023-02-27T14:55:29.147Z,102432.31
2023-02-27T14:58:19.607Z,102433.34
2023-02-27T15:01:04.965Z,102442.94
2023-02-27T15:03:59.181Z,102435.16
2023-02-27T15:06:46.280Z,102441.19
2023-02-27T15:09:23.510Z,102438.00
2023-02-27T15:12:03.595Z,102439.91
2023-02-27T15:14:39.944Z,102443.03
2023-02-27T15:17:36.918Z,102442.03
2023-02-27T15:20:29.942Z,102443.97
2023-02-27T15:22:59.665Z,102433.84
2023-02-27T15:25:38.358Z,102437.69
2023-02-27T15:28:35.695Z,102439.59
2023-02-27T15:31:03.213Z,102436.78
2023-02-27T15:33:33.319Z,102445.59
2023-02-27T15:36:01.654Z,102439.28
2023-02-27T15:38:36.257Z,102450.56
2023-02-27T15:41:04.408Z,102449.13
2023-02-27T15:43:32.245Z,102456.00
2023-02-27T15:46:00.118Z,102453.09
2023-02-27T15:48:29.399Z,102455.59
2023-02-27T15:51:04.233Z,102454.19
2023-02-27T15:53:33.941Z,102461.78
2023-02-27T15:56:09.405Z,102465.94
2023-02-27T15:58:54.409Z,102462.09
2023-02-27T16:01:26.469Z,102477.34
2023-02-27T16:03:58.230Z,102468.41
2023-02-27T16:06:30.696Z,102470.50
2023-02-27T16:09:04.696Z,102475.97
2023-02-27T16:11:37.157Z,102481.78
2023-02-27T16:14:05.897Z,102483.09
2023-02-27T16:16:36.090Z,102482.78
2023-02-27T16:19:27.274Z,102479.59
2023-02-27T16:22:15.717Z,102490.25
2023-02-27T16:24:43.989Z,102498.19
2023-02-27T16:27:31.907Z,102495.75
2023-02-27T16:30:02.429Z,102491.34
2023-02-27T16:32:44.081Z,102497.06
2023-02-27T16:35:23.532Z,102497.38
2023-02-27T16:37:51.448Z,102501.19
2023-02-27T16:40:22.787Z,102503.78
2023-02-27T16:42:51.661Z,102499.88
2023-02-27T16:45:28.736Z,102498.97
2023-02-27T16:47:58.996Z,102499.41
2023-02-27T16:50:41.648Z,102510.22
2023-02-27T16:53:09.515Z,102509.34
2023-02-27T16:55:42.545Z,102513.84
2023-02-27T16:58:15.392Z,102509.22
2023-02-27T17:00:42.678Z,102522.78
2023-02-27T17:03:09.844Z,102518.69
2023-02-27T17:05:36.992Z,102523.91
2023-02-27T17:08:04.510Z,102516.19
2023-02-27T17:10:31.763Z,102521.31
2023-02-27T17:12:58.934Z,102519.84
2023-02-27T17:15:27.678Z,102530.97
2023-02-27T17:17:54.821Z,102524.22
2023-02-27T17:20:21.979Z,102537.22
2023-02-27T17:22:49.120Z,102524.22
2023-02-27T17:25:16.325Z,102524.81
2023-02-27T17:27:44.469Z,102541.31
2023-02-27T17:30:14.010Z,102535.59
2023-02-27T17:32:41.228Z,102531.22
2023-02-27T17:35:09.296Z,102522.63
2023-02-27T17:37:36.583Z,102532.97
2023-02-27T17:40:07.997Z,102525.09
2023-02-27T17:42:36.685Z,102531.53
2023-02-27T17:45:06.305Z,102531.81
2023-02-27T17:47:33.928Z,102524.50
2023-02-27T17:50:01.066Z,102532.66
2023-02-27T17:52:28.241Z,102533.25
2023-02-27T17:54:55.634Z,102533.56
2023-02-27T17:57:22.828Z,102530.06
2023-02-27T17:59:49.983Z,102541.16
2023-02-27T18:02:17.196Z,102528.91
2023-02-27T18:04:44.379Z,102531.81
2023-02-27T18:07:11.521Z,102531.38
2023-02-27T18:09:39.370Z,102532.84
2023-02-27T18:12:07.029Z,102528.03
2023-02-27T18:14:35.078Z,102528.88
2023-02-27T18:17:02.239Z,102531.22
2023-02-27T18:19:32.367Z,102529.78
2023-02-27T18:21:59.704Z,102518.25
2023-02-27T18:24:26.931Z,102526.56
2023-02-27T18:26:54.506Z,102536.47
2023-02-27T18:29:21.802Z,102527.88
2023-02-27T18:31:53.946Z,102527.72
2023-02-27T18:34:23.166Z,102535.31
2023-02-27T18:36:51.877Z,102537.03
2023-02-27T18:39:19.696Z,102536.16
2023-02-27T18:41:47.533Z,102538.53
2023-02-27T18:44:14.865Z,102531.38
2023-02-27T18:46:42.119Z,102536.13
2023-02-27T18:49:09.929Z,102543.75
2023-02-27T18:51:37.687Z,102545.59
2023-02-27T18:54:06.842Z,102532.66
2023-02-27T18:56:34.091Z,102538.53
2023-02-27T18:59:05.058Z,102533.56
2023-02-27T19:01:37.125Z,102535.16
2023-02-27T19:04:07.046Z,102531.66
2023-02-27T19:06:40.536Z,102541.25
2023-02-27T19:09:11.480Z,102559.19
2023-02-27T19:11:39.214Z,102542.59
2023-02-27T19:14:10.807Z,102541.56
2023-02-27T19:16:38.345Z,102545.47
2023-02-27T19:19:07.546Z,102541.00
2023-02-27T19:21:35.881Z,102541.22
2023-02-27T19:24:03.399Z,102548.06
2023-02-27T19:26:34.106Z,102549.66
2023-02-27T19:29:01.322Z,102550.28
2023-02-27T19:31:29.552Z,102549.41
2023-02-27T19:33:57.403Z,102563.31
2023-02-27T19:36:29.061Z,102560.00
2023-02-27T19:38:58.203Z,102555.91
2023-02-27T19:41:25.924Z,102558.91
2023-02-27T19:43:53.901Z,102557.69
2023-02-27T19:46:26.724Z,102556.28
2023-02-27T19:48:57.712Z,102558.94
2023-02-27T19:51:25.279Z,102560.09
2023-02-27T19:53:53.750Z,102551.84
2023-02-27T19:56:25.116Z,102557.09
2023-02-27T19:58:54.150Z,102560.97
2023-02-27T20:01:29.007Z,102561.28
2023-02-27T20:03:56.698Z,102555.50
2023-02-27T20:06:29.542Z,102560.00
2023-02-27T20:08:58.337Z,102552.56
2023-02-27T20:11:30.142Z,102553.56
2023-02-27T20:13:57.667Z,102558.94
2023-02-27T20:16:28.082Z,102562.53
2023-02-27T20:18:56.613Z,102568.84
2023-02-27T20:21:24.913Z,102561.09
2023-02-27T20:23:52.865Z,102577.75
2023-02-27T20:26:29.083Z,102571.81
2023-02-27T20:29:00.849Z,102568.81
2023-02-27T20:31:31.841Z,102574.47
2023-02-27T20:34:01.129Z,102577.06
2023-02-27T20:36:28.855Z,102582.00
2023-02-27T20:38:56.029Z,102576.34
2023-02-27T20:41:27.606Z,102582.94
2023-02-27T20:43:57.363Z,102585.75
2023-02-27T20:46:28.614Z,102577.63
2023-02-27T20:49:01.125Z,102585.34
2023-02-27T20:51:39.329Z,102586.06
2023-02-27T20:54:11.285Z,102585.13
2023-02-27T20:56:41.352Z,102585.50
2023-02-27T20:59:14.617Z,102574.44
2023-02-27T21:01:51.049Z,102586.06
2023-02-27T21:04:42.234Z,102594.09
2023-02-27T21:07:21.352Z,102588.53
2023-02-27T21:09:49.294Z,102601.06
2023-02-27T21:12:17.497Z,102605.09
2023-02-27T21:14:45.225Z,102604.38
2023-02-27T21:17:13.644Z,102600.91
2023-02-27T21:19:40.856Z,102598.78
2023-02-27T21:22:11.076Z,102586.56
2023-02-27T21:24:38.631Z,102591.75
2023-02-27T21:27:05.792Z,102596.41
2023-02-27T21:29:33.167Z,102597.31
2023-02-27T21:32:00.946Z,102595.59
2023-02-27T21:34:29.160Z,102603.16
2023-02-27T21:36:56.473Z,102597.78
2023-02-27T21:39:30.662Z,102605.06
2023-02-27T21:41:59.532Z,102597.94
2023-02-27T21:44:26.802Z,102599.03
2023-02-27T21:46:54.682Z,102610.03
2023-02-27T21:49:26.048Z,102612.94
2023-02-27T21:51:53.702Z,102618.06
2023-02-27T21:54:21.989Z,102622.25
2023-02-27T21:56:49.886Z,102617.94
2023-02-27T21:59:19.327Z,102627.59
2023-02-27T22:01:48.183Z,102633.44
2023-02-27T22:04:17.736Z,102619.47
2023-02-27T22:06:45.772Z,102617.06
2023-02-27T22:09:13.037Z,102622.59
2023-02-27T22:11:43.080Z,102613.03
2023-02-27T22:14:12.296Z,102617.69
2023-02-27T22:16:40.467Z,102621.81
2023-02-27T22:19:12.059Z,102627.38
2023-02-27T22:21:40.236Z,102629.63
2023-02-27T22:24:07.881Z,102628.88
2023-02-27T22:26:36.118Z,102629.56
2023-02-27T22:29:05.977Z,102634.66
2023-02-27T22:31:36.951Z,102633.28
2023-02-27T22:34:08.313Z,102626.03
2023-02-27T22:36:36.911Z,102642.00
2023-02-27T22:39:05.936Z,102638.09
2023-02-27T22:41:37.420Z,102634.06
2023-02-27T22:44:05.218Z,102627.94
2023-02-27T22:46:38.543Z,102640.59
2023-02-27T22:49:23.338Z,102632.31
2023-02-27T22:51:52.154Z,102636.38
2023-02-27T22:54:21.917Z,102627.03
2023-02-27T22:56:52.364Z,102624.03
2023-02-27T22:59:20.835Z,102630.41
2023-02-27T23:01:49.322Z,102632.06
2023-02-27T23:04:20.720Z,102638.88
2023-02-27T23:06:48.718Z,102634.47
2023-02-27T23:09:20.644Z,102630.09
2023-02-27T23:11:48.118Z,102633.59
2023-02-27T23:14:16.113Z,102643.88
2023-02-27T23:16:46.841Z,102648.63
2023-02-27T23:19:18.977Z,102642.31
2023-02-27T23:21:46.458Z,102651.09
2023-02-27T23:24:17.819Z,102646.97
2023-02-27T23:26:48.968Z,102649.16
2023-02-27T23:29:16.257Z,102649.56
2023-02-27T23:31:43.505Z,102653.19
2023-02-27T23:34:10.977Z,102663.28
2023-02-27T23:36:38.756Z,102654.75
2023-02-27T23:39:07.834Z,102646.94
2023-02-27T23:41:35.434Z,102655.00
2023-02-27T23:44:02.774Z,102656.34
2023-02-27T23:46:30.737Z,102662.53
2023-02-27T23:48:59.941Z,102673.03
2023-02-27T23:51:30.244Z,102662.34
2023-02-27T23:53:59.305Z,102663.91
2023-02-27T23:56:30.547Z,102669.44
2023-02-27T23:59:02.985Z,102666.09
